sensor_id;sensor_type;location;lat;lon;timestamp;P1;durP1;ratioP1;P2;durP2;ratioP2
13588;SDS011;6865;52.552;13.434;2022-12-18T00:01:15;33.50;;;14.43;;
13588;SDS011;6865;52.552;13.434;2022-12-18T00:03:47;25.43;;;13.23;;
13588;SDS011;6865;52.552;13.434;2022-12-18T00:06:14;24.47;;;12.43;;
13588;SDS011;6865;52.552;13.434;2022-12-18T00:08:42;25.73;;;12.93;;
13588;SDS011;6865;52.552;13.434;2022-12-18T00:11:11;25.93;;;13.80;;
13588;SDS011;6865;52.552;13.434;2022-12-18T00:13:39;27.83;;;13.37;;
13588;SDS011;6865;52.552;13.434;2022-12-18T00:16:07;25.07;;;12.67;;
13588;SDS011;6865;52.552;13.434;2022-12-18T00:18:36;25.97;;;12.63;;
13588;SDS011;6865;52.552;13.434;2022-12-18T00:21:05;28.50;;;13.00;;
13588;SDS011;6865;52.552;13.434;2022-12-18T00:23:34;28.70;;;13.90;;
13588;SDS011;6865;52.552;13.434;2022-12-18T00:26:04;26.43;;;12.63;;
13588;SDS011;6865;52.552;13.434;2022-12-18T00:28:32;30.20;;;13.67;;
13588;SDS011;6865;52.552;13.434;2022-12-18T00:31:03;28.87;;;12.87;;
13588;SDS011;6865;52.552;13.434;2022-12-18T00:33:32;25.07;;;12.53;;
13588;SDS011;6865;52.552;13.434;2022-12-18T00:36:00;28.77;;;12.87;;
13588;SDS011;6865;52.552;13.434;2022-12-18T00:38:31;27.00;;;12.23;;
13588;SDS011;6865;52.552;13.434;2022-12-18T00:40:58;29.83;;;13.87;;
13588;SDS011;6865;52.552;13.434;2022-12-18T00:43:24;24.53;;;12.00;;
13588;SDS011;6865;52.552;13.434;2022-12-18T00:45:51;26.83;;;12.40;;
13588;SDS011;6865;52.552;13.434;2022-12-18T00:48:18;26.33;;;13.13;;
13588;SDS011;6865;52.552;13.434;2022-12-18T00:50:45;24.07;;;11.80;;
13588;SDS011;6865;52.552;13.434;2022-12-18T00:53:13;26.63;;;12.30;;
13588;SDS011;6865;52.552;13.434;2022-12-18T00:55:39;26.33;;;12.47;;
13588;SDS011;6865;52.552;13.434;2022-12-18T00:58:07;33.20;;;13.97;;
13588;SDS011;6865;52.552;13.434;2022-12-18T01:00:35;28.47;;;13.43;;
13588;SDS011;6865;52.552;13.434;2022-12-18T01:03:03;27.90;;;13.40;;
13588;SDS011;6865;52.552;13.434;2022-12-18T01:05:30;24.70;;;12.17;;
13588;SDS011;6865;52.552;13.434;2022-12-18T01:07:58;29.03;;;13.87;;
13588;SDS011;6865;52.552;13.434;2022-12-18T01:10:25;28.53;;;13.53;;
13588;SDS011;6865;52.552;13.434;2022-12-18T01:12:52;24.27;;;12.13;;
13588;SDS011;6865;52.552;13.434;2022-12-18T01:15:18;27.00;;;12.30;;
13588;SDS011;6865;52.552;13.434;2022-12-18T01:17:46;25.70;;;12.37;;
13588;SDS011;6865;52.552;13.434;2022-12-18T01:20:13;25.33;;;12.00;;
13588;SDS011;6865;52.552;13.434;2022-12-18T01:22:40;22.23;;;11.20;;
13588;SDS011;6865;52.552;13.434;2022-12-18T01:25:06;22.87;;;11.97;;
13588;SDS011;6865;52.552;13.434;2022-12-18T01:27:33;23.23;;;10.93;;
13588;SDS011;6865;52.552;13.434;2022-12-18T01:30:00;23.33;;;11.37;;
13588;SDS011;6865;52.552;13.434;2022-12-18T01:32:29;25.83;;;11.57;;
13588;SDS011;6865;52.552;13.434;2022-12-18T01:34:56;24.83;;;12.17;;
13588;SDS011;6865;52.552;13.434;2022-12-18T01:37:23;27.70;;;11.60;;
13588;SDS011;6865;52.552;13.434;2022-12-18T01:39:51;25.40;;;12.13;;
13588;SDS011;6865;52.552;13.434;2022-12-18T01:42:20;25.13;;;12.57;;
13588;SDS011;6865;52.552;13.434;2022-12-18T01:47:33;26.47;;;12.47;;
13588;SDS011;6865;52.552;13.434;2022-12-18T01:50:13;27.07;;;12.97;;
13588;SDS011;6865;52.552;13.434;2022-12-18T01:52:43;22.33;;;11.20;;
13588;SDS011;6865;52.552;13.434;2022-12-18T01:55:15;24.50;;;11.57;;
13588;SDS011;6865;52.552;13.434;2022-12-18T01:57:44;23.17;;;11.07;;
13588;SDS011;6865;52.552;13.434;2022-12-18T02:00:15;25.73;;;11.40;;
13588;SDS011;6865;52.552;13.434;2022-12-18T02:02:44;23.00;;;10.63;;
13588;SDS011;6865;52.552;13.434;2022-12-18T02:05:14;24.30;;;11.60;;
13588;SDS011;6865;52.552;13.434;2022-12-18T02:07:47;23.43;;;11.47;;
13588;SDS011;6865;52.552;13.434;2022-12-18T02:10:40;22.50;;;11.23;;
13588;SDS011;6865;52.552;13.434;2022-12-18T02:13:13;26.30;;;12.93;;
13588;SDS011;6865;52.552;13.434;2022-12-18T02:15:51;27.50;;;12.70;;
13588;SDS011;6865;52.552;13.434;2022-12-18T02:18:30;27.53;;;13.20;;
13588;SDS011;6865;52.552;13.434;2022-12-18T02:21:12;28.93;;;14.23;;
13588;SDS011;6865;52.552;13.434;2022-12-18T02:23:56;29.20;;;13.80;;
13588;SDS011;6865;52.552;13.434;2022-12-18T02:26:40;31.00;;;13.97;;
13588;SDS011;6865;52.552;13.434;2022-12-18T02:29:13;29.33;;;13.93;;
13588;SDS011;6865;52.552;13.434;2022-12-18T02:31:52;32.60;;;14.13;;
13588;SDS011;6865;52.552;13.434;2022-12-18T02:34:22;31.63;;;14.90;;
13588;SDS011;6865;52.552;13.434;2022-12-18T02:37:01;33.27;;;14.47;;
13588;SDS011;6865;52.552;13.434;2022-12-18T02:39:32;33.27;;;15.43;;
13588;SDS011;6865;52.552;13.434;2022-12-18T02:42:00;33.97;;;15.57;;
13588;SDS011;6865;52.552;13.434;2022-12-18T02:44:34;36.00;;;15.20;;
13588;SDS011;6865;52.552;13.434;2022-12-18T02:47:08;35.13;;;15.83;;
13588;SDS011;6865;52.552;13.434;2022-12-18T02:49:44;37.00;;;16.67;;
13588;SDS011;6865;52.552;13.434;2022-12-18T02:52:39;40.70;;;17.07;;
13588;SDS011;6865;52.552;13.434;2022-12-18T02:55:19;40.80;;;17.03;;
13588;SDS011;6865;52.552;13.434;2022-12-18T02:58:10;43.30;;;18.17;;
13588;SDS011;6865;52.552;13.434;2022-12-18T03:00:48;36.77;;;15.80;;
13588;SDS011;6865;52.552;13.434;2022-12-18T03:03:23;41.47;;;17.33;;
13588;SDS011;6865;52.552;13.434;2022-12-18T03:05:57;44.60;;;18.53;;
13588;SDS011;6865;52.552;13.434;2022-12-18T03:08:36;49.27;;;18.80;;
13588;SDS011;6865;52.552;13.434;2022-12-18T03:11:07;39.37;;;18.00;;
13588;SDS011;6865;52.552;13.434;2022-12-18T03:16:09;42.00;;;17.43;;
13588;SDS011;6865;52.552;13.434;2022-12-18T03:18:39;48.20;;;18.43;;
13588;SDS011;6865;52.552;13.434;2022-12-18T03:21:11;40.17;;;18.30;;
13588;SDS011;6865;52.552;13.434;2022-12-18T03:23:40;45.20;;;18.83;;
13588;SDS011;6865;52.552;13.434;2022-12-18T03:26:12;42.03;;;19.27;;
13588;SDS011;6865;52.552;13.434;2022-12-18T03:28:44;40.27;;;18.97;;
13588;SDS011;6865;52.552;13.434;2022-12-18T03:31:15;45.47;;;18.33;;
13588;SDS011;6865;52.552;13.434;2022-12-18T03:33:51;42.53;;;18.67;;
13588;SDS011;6865;52.552;13.434;2022-12-18T03:36:20;43.73;;;18.30;;
13588;SDS011;6865;52.552;13.434;2022-12-18T03:38:49;40.07;;;17.43;;
13588;SDS011;6865;52.552;13.434;2022-12-18T03:41:20;36.17;;;16.37;;
13588;SDS011;6865;52.552;13.434;2022-12-18T03:44:08;37.33;;;16.23;;
13588;SDS011;6865;52.552;13.434;2022-12-18T03:46:53;36.43;;;16.30;;
13588;SDS011;6865;52.552;13.434;2022-12-18T03:49:35;36.53;;;14.87;;
13588;SDS011;6865;52.552;13.434;2022-12-18T03:52:18;36.47;;;14.97;;
13588;SDS011;6865;52.552;13.434;2022-12-18T03:54:56;31.07;;;14.50;;
13588;SDS011;6865;52.552;13.434;2022-12-18T03:57:24;33.47;;;14.60;;
13588;SDS011;6865;52.552;13.434;2022-12-18T03:59:56;23.87;;;12.70;;
13588;SDS011;6865;52.552;13.434;2022-12-18T04:02:28;28.67;;;13.37;;
13588;SDS011;6865;52.552;13.434;2022-12-18T04:04:59;27.90;;;13.03;;
13588;SDS011;6865;52.552;13.434;2022-12-18T04:07:28;29.40;;;14.17;;
13588;SDS011;6865;52.552;13.434;2022-12-18T04:09:55;29.70;;;13.40;;
13588;SDS011;6865;52.552;13.434;2022-12-18T04:12:25;34.33;;;15.03;;
13588;SDS011;6865;52.552;13.434;2022-12-18T04:14:52;31.13;;;12.93;;
13588;SDS011;6865;52.552;13.434;2022-12-18T04:17:18;30.13;;;13.47;;
13588;SDS011;6865;52.552;13.434;2022-12-18T04:19:45;29.53;;;13.50;;
13588;SDS011;6865;52.552;13.434;2022-12-18T04:22:12;28.40;;;13.47;;
13588;SDS011;6865;52.552;13.434;2022-12-18T04:24:38;28.93;;;13.50;;
13588;SDS011;6865;52.552;13.434;2022-12-18T04:27:05;28.77;;;13.47;;
13588;SDS011;6865;52.552;13.434;2022-12-18T04:29:32;28.23;;;14.17;;
13588;SDS011;6865;52.552;13.434;2022-12-18T04:31:59;30.87;;;12.97;;
13588;SDS011;6865;52.552;13.434;2022-12-18T04:34:26;30.47;;;14.17;;
13588;SDS011;6865;52.552;13.434;2022-12-18T04:36:52;30.00;;;14.03;;
13588;SDS011;6865;52.552;13.434;2022-12-18T04:39:19;29.90;;;13.63;;
13588;SDS011;6865;52.552;13.434;2022-12-18T04:41:46;30.60;;;13.53;;
13588;SDS011;6865;52.552;13.434;2022-12-18T04:44:12;27.80;;;13.33;;
13588;SDS011;6865;52.552;13.434;2022-12-18T04:46:39;28.40;;;12.93;;
13588;SDS011;6865;52.552;13.434;2022-12-18T04:49:06;26.03;;;12.33;;
13588;SDS011;6865;52.552;13.434;2022-12-18T04:51:33;24.53;;;12.67;;
13588;SDS011;6865;52.552;13.434;2022-12-18T04:53:59;27.90;;;12.07;;
13588;SDS011;6865;52.552;13.434;2022-12-18T04:56:26;26.20;;;12.63;;
13588;SDS011;6865;52.552;13.434;2022-12-18T04:58:52;26.37;;;12.30;;
13588;SDS011;6865;52.552;13.434;2022-12-18T05:01:19;26.87;;;13.07;;
13588;SDS011;6865;52.552;13.434;2022-12-18T05:03:46;26.60;;;12.23;;
13588;SDS011;6865;52.552;13.434;2022-12-18T05:06:13;30.00;;;13.10;;
13588;SDS011;6865;52.552;13.434;2022-12-18T05:08:40;23.77;;;11.87;;
13588;SDS011;6865;52.552;13.434;2022-12-18T05:11:08;26.00;;;11.50;;
13588;SDS011;6865;52.552;13.434;2022-12-18T05:13:36;24.83;;;11.93;;
13588;SDS011;6865;52.552;13.434;2022-12-18T05:16:04;27.07;;;12.63;;
13588;SDS011;6865;52.552;13.434;2022-12-18T05:18:32;26.97;;;11.83;;
13588;SDS011;6865;52.552;13.434;2022-12-18T05:20:58;29.53;;;12.90;;
13588;SDS011;6865;52.552;13.434;2022-12-18T05:23:25;32.73;;;13.23;;
13588;SDS011;6865;52.552;13.434;2022-12-18T05:25:56;24.23;;;11.87;;
13588;SDS011;6865;52.552;13.434;2022-12-18T05:28:25;27.30;;;12.57;;
13588;SDS011;6865;52.552;13.434;2022-12-18T05:30:54;30.97;;;12.67;;
13588;SDS011;6865;52.552;13.434;2022-12-18T05:33:22;24.53;;;12.23;;
13588;SDS011;6865;52.552;13.434;2022-12-18T05:35:51;27.13;;;12.13;;
13588;SDS011;6865;52.552;13.434;2022-12-18T05:38:19;28.10;;;12.53;;
13588;SDS011;6865;52.552;13.434;2022-12-18T05:40:47;28.23;;;12.47;;
13588;SDS011;6865;52.552;13.434;2022-12-18T05:43:14;25.40;;;11.77;;
13588;SDS011;6865;52.552;13.434;2022-12-18T05:45:46;25.67;;;13.17;;
13588;SDS011;6865;52.552;13.434;2022-12-18T05:48:14;29.00;;;12.10;;
13588;SDS011;6865;52.552;13.434;2022-12-18T05:50:41;30.27;;;12.83;;
13588;SDS011;6865;52.552;13.434;2022-12-18T05:53:11;29.67;;;13.47;;
13588;SDS011;6865;52.552;13.434;2022-12-18T05:55:39;32.07;;;13.40;;
13588;SDS011;6865;52.552;13.434;2022-12-18T05:58:07;29.50;;;12.70;;
13588;SDS011;6865;52.552;13.434;2022-12-18T06:00:36;29.00;;;13.20;;
13588;SDS011;6865;52.552;13.434;2022-12-18T06:03:08;30.83;;;14.07;;
13588;SDS011;6865;52.552;13.434;2022-12-18T06:05:36;33.30;;;13.80;;
13588;SDS011;6865;52.552;13.434;2022-12-18T06:08:04;31.30;;;14.93;;
13588;SDS011;6865;52.552;13.434;2022-12-18T06:10:31;31.13;;;14.33;;
13588;SDS011;6865;52.552;13.434;2022-12-18T06:12:58;34.60;;;13.27;;
13588;SDS011;6865;52.552;13.434;2022-12-18T06:15:25;28.53;;;13.23;;
13588;SDS011;6865;52.552;13.434;2022-12-18T06:17:51;36.97;;;14.50;;
13588;SDS011;6865;52.552;13.434;2022-12-18T06:20:18;30.17;;;13.50;;
13588;SDS011;6865;52.552;13.434;2022-12-18T06:22:45;37.30;;;15.57;;
13588;SDS011;6865;52.552;13.434;2022-12-18T06:25:11;37.57;;;15.33;;
13588;SDS011;6865;52.552;13.434;2022-12-18T06:27:38;35.50;;;15.03;;
13588;SDS011;6865;52.552;13.434;2022-12-18T06:30:07;34.43;;;15.13;;
13588;SDS011;6865;52.552;13.434;2022-12-18T06:32:34;35.50;;;15.43;;
13588;SDS011;6865;52.552;13.434;2022-12-18T06:35:01;38.30;;;16.73;;
13588;SDS011;6865;52.552;13.434;2022-12-18T06:37:27;36.60;;;15.60;;
13588;SDS011;6865;52.552;13.434;2022-12-18T06:39:54;34.20;;;14.90;;
13588;SDS011;6865;52.552;13.434;2022-12-18T06:42:22;36.10;;;16.43;;
13588;SDS011;6865;52.552;13.434;2022-12-18T06:44:50;39.27;;;16.13;;
13588;SDS011;6865;52.552;13.434;2022-12-18T06:47:17;38.83;;;15.50;;
13588;SDS011;6865;52.552;13.434;2022-12-18T06:49:44;31.73;;;15.13;;
13588;SDS011;6865;52.552;13.434;2022-12-18T06:52:11;38.67;;;16.60;;
13588;SDS011;6865;52.552;13.434;2022-12-18T06:54:37;38.20;;;15.90;;
13588;SDS011;6865;52.552;13.434;2022-12-18T06:57:04;34.70;;;14.83;;
13588;SDS011;6865;52.552;13.434;2022-12-18T06:59:31;32.83;;;15.53;;
13588;SDS011;6865;52.552;13.434;2022-12-18T07:01:57;31.93;;;14.87;;
13588;SDS011;6865;52.552;13.434;2022-12-18T07:04:31;31.10;;;13.63;;
13588;SDS011;6865;52.552;13.434;2022-12-18T07:06:58;28.63;;;13.17;;
13588;SDS011;6865;52.552;13.434;2022-12-18T07:09:24;29.73;;;14.53;;
13588;SDS011;6865;52.552;13.434;2022-12-18T07:11:52;28.47;;;13.83;;
13588;SDS011;6865;52.552;13.434;2022-12-18T07:14:18;31.17;;;14.00;;
13588;SDS011;6865;52.552;13.434;2022-12-18T07:16:45;29.93;;;14.07;;
13588;SDS011;6865;52.552;13.434;2022-12-18T07:19:12;32.83;;;14.77;;
13588;SDS011;6865;52.552;13.434;2022-12-18T07:21:38;32.03;;;13.40;;
13588;SDS011;6865;52.552;13.434;2022-12-18T07:24:05;33.23;;;13.90;;
13588;SDS011;6865;52.552;13.434;2022-12-18T07:26:32;30.90;;;13.50;;
13588;SDS011;6865;52.552;13.434;2022-12-18T07:28:59;30.30;;;14.90;;
13588;SDS011;6865;52.552;13.434;2022-12-18T07:31:26;32.90;;;15.07;;
13588;SDS011;6865;52.552;13.434;2022-12-18T07:33:53;28.73;;;14.13;;
13588;SDS011;6865;52.552;13.434;2022-12-18T07:36:20;34.60;;;14.90;;
13588;SDS011;6865;52.552;13.434;2022-12-18T07:38:47;29.20;;;14.63;;
13588;SDS011;6865;52.552;13.434;2022-12-18T07:41:15;32.73;;;15.67;;
13588;SDS011;6865;52.552;13.434;2022-12-18T07:43:41;32.53;;;14.97;;
13588;SDS011;6865;52.552;13.434;2022-12-18T07:46:09;34.27;;;15.37;;
13588;SDS011;6865;52.552;13.434;2022-12-18T07:48:38;30.60;;;16.13;;
13588;SDS011;6865;52.552;13.434;2022-12-18T07:51:06;30.57;;;14.47;;
13588;SDS011;6865;52.552;13.434;2022-12-18T07:53:34;32.13;;;13.97;;
13588;SDS011;6865;52.552;13.434;2022-12-18T07:56:03;28.50;;;14.03;;
13588;SDS011;6865;52.552;13.434;2022-12-18T07:58:52;33.17;;;14.20;;
13588;SDS011;6865;52.552;13.434;2022-12-18T08:01:19;30.00;;;13.77;;
13588;SDS011;6865;52.552;13.434;2022-12-18T08:03:46;33.47;;;14.23;;
13588;SDS011;6865;52.552;13.434;2022-12-18T08:06:15;30.67;;;14.33;;
13588;SDS011;6865;52.552;13.434;2022-12-18T08:08:42;29.60;;;13.60;;
13588;SDS011;6865;52.552;13.434;2022-12-18T08:11:12;32.37;;;14.93;;
13588;SDS011;6865;52.552;13.434;2022-12-18T08:13:39;30.37;;;15.30;;
13588;SDS011;6865;52.552;13.434;2022-12-18T08:16:06;30.30;;;14.07;;
13588;SDS011;6865;52.552;13.434;2022-12-18T08:18:34;27.53;;;13.67;;
13588;SDS011;6865;52.552;13.434;2022-12-18T08:21:12;28.37;;;13.43;;
13588;SDS011;6865;52.552;13.434;2022-12-18T08:23:41;31.47;;;16.00;;
13588;SDS011;6865;52.552;13.434;2022-12-18T08:26:09;32.80;;;15.20;;
13588;SDS011;6865;52.552;13.434;2022-12-18T08:28:37;29.37;;;13.90;;
13588;SDS011;6865;52.552;13.434;2022-12-18T08:31:04;27.00;;;13.20;;
13588;SDS011;6865;52.552;13.434;2022-12-18T08:33:32;31.17;;;13.83;;
13588;SDS011;6865;52.552;13.434;2022-12-18T08:35:59;27.83;;;12.53;;
13588;SDS011;6865;52.552;13.434;2022-12-18T08:38:26;31.13;;;13.03;;
13588;SDS011;6865;52.552;13.434;2022-12-18T08:41:00;28.00;;;13.33;;
13588;SDS011;6865;52.552;13.434;2022-12-18T08:43:31;22.17;;;11.93;;
13588;SDS011;6865;52.552;13.434;2022-12-18T08:46:17;24.50;;;11.47;;
13588;SDS011;6865;52.552;13.434;2022-12-18T08:48:45;25.50;;;12.13;;
13588;SDS011;6865;52.552;13.434;2022-12-18T08:51:12;24.33;;;12.57;;
13588;SDS011;6865;52.552;13.434;2022-12-18T08:53:41;24.77;;;12.17;;
13588;SDS011;6865;52.552;13.434;2022-12-18T08:56:08;29.07;;;12.67;;
13588;SDS011;6865;52.552;13.434;2022-12-18T08:58:35;27.50;;;12.90;;
13588;SDS011;6865;52.552;13.434;2022-12-18T09:01:02;25.70;;;12.27;;
13588;SDS011;6865;52.552;13.434;2022-12-18T09:03:30;25.57;;;12.20;;
13588;SDS011;6865;52.552;13.434;2022-12-18T09:05:58;27.43;;;12.67;;
13588;SDS011;6865;52.552;13.434;2022-12-18T09:08:25;24.33;;;12.17;;
13588;SDS011;6865;52.552;13.434;2022-12-18T09:10:53;25.40;;;12.83;;
13588;SDS011;6865;52.552;13.434;2022-12-18T09:13:20;27.07;;;13.63;;
13588;SDS011;6865;52.552;13.434;2022-12-18T09:15:48;29.10;;;13.17;;
13588;SDS011;6865;52.552;13.434;2022-12-18T09:18:17;25.77;;;12.80;;
13588;SDS011;6865;52.552;13.434;2022-12-18T09:20:45;25.03;;;12.77;;
13588;SDS011;6865;52.552;13.434;2022-12-18T09:23:12;25.43;;;12.40;;
13588;SDS011;6865;52.552;13.434;2022-12-18T09:25:39;26.40;;;12.30;;
13588;SDS011;6865;52.552;13.434;2022-12-18T09:28:09;24.13;;;12.60;;
13588;SDS011;6865;52.552;13.434;2022-12-18T09:30:41;23.93;;;12.20;;
13588;SDS011;6865;52.552;13.434;2022-12-18T09:33:16;26.37;;;12.47;;
13588;SDS011;6865;52.552;13.434;2022-12-18T09:35:43;23.43;;;12.33;;
13588;SDS011;6865;52.552;13.434;2022-12-18T09:38:12;26.00;;;12.90;;
13588;SDS011;6865;52.552;13.434;2022-12-18T09:40:53;27.07;;;13.23;;
13588;SDS011;6865;52.552;13.434;2022-12-18T09:43:41;27.77;;;13.57;;
13588;SDS011;6865;52.552;13.434;2022-12-18T09:46:19;26.77;;;13.47;;
13588;SDS011;6865;52.552;13.434;2022-12-18T09:48:56;25.57;;;12.57;;
13588;SDS011;6865;52.552;13.434;2022-12-18T09:51:27;27.93;;;13.93;;
13588;SDS011;6865;52.552;13.434;2022-12-18T09:54:01;30.50;;;12.90;;
13588;SDS011;6865;52.552;13.434;2022-12-18T09:56:31;27.27;;;12.93;;
13588;SDS011;6865;52.552;13.434;2022-12-18T09:59:03;26.07;;;12.83;;
13588;SDS011;6865;52.552;13.434;2022-12-18T10:01:31;31.27;;;13.47;;
13588;SDS011;6865;52.552;13.434;2022-12-18T10:04:09;25.07;;;12.70;;
13588;SDS011;6865;52.552;13.434;2022-12-18T10:06:55;27.60;;;13.03;;
13588;SDS011;6865;52.552;13.434;2022-12-18T10:09:37;29.33;;;13.03;;
13588;SDS011;6865;52.552;13.434;2022-12-18T10:12:23;28.40;;;13.97;;
13588;SDS011;6865;52.552;13.434;2022-12-18T10:20:56;29.20;;;14.07;;
13588;SDS011;6865;52.552;13.434;2022-12-18T10:23:28;31.87;;;14.83;;
13588;SDS011;6865;52.552;13.434;2022-12-18T10:26:10;32.13;;;13.77;;
13588;SDS011;6865;52.552;13.434;2022-12-18T10:28:38;30.90;;;13.70;;
13588;SDS011;6865;52.552;13.434;2022-12-18T10:31:07;24.83;;;12.83;;
13588;SDS011;6865;52.552;13.434;2022-12-18T10:33:44;29.20;;;14.17;;
13588;SDS011;6865;52.552;13.434;2022-12-18T10:36:12;31.97;;;14.50;;
13588;SDS011;6865;52.552;13.434;2022-12-18T10:38:39;31.63;;;14.40;;
13588;SDS011;6865;52.552;13.434;2022-12-18T10:41:22;30.17;;;13.87;;
13588;SDS011;6865;52.552;13.434;2022-12-18T10:44:12;31.43;;;14.40;;
13588;SDS011;6865;52.552;13.434;2022-12-18T10:46:39;29.17;;;13.97;;
13588;SDS011;6865;52.552;13.434;2022-12-18T10:49:07;28.87;;;13.97;;
13588;SDS011;6865;52.552;13.434;2022-12-18T10:51:45;31.53;;;15.20;;
13588;SDS011;6865;52.552;13.434;2022-12-18T10:54:14;31.13;;;14.50;;
13588;SDS011;6865;52.552;13.434;2022-12-18T10:56:44;34.47;;;14.80;;
13588;SDS011;6865;52.552;13.434;2022-12-18T10:59:12;30.97;;;14.23;;
13588;SDS011;6865;52.552;13.434;2022-12-18T11:01:53;34.53;;;15.27;;
13588;SDS011;6865;52.552;13.434;2022-12-18T11:04:26;30.33;;;14.13;;
13588;SDS011;6865;52.552;13.434;2022-12-18T11:06:58;31.83;;;15.00;;
13588;SDS011;6865;52.552;13.434;2022-12-18T11:12:00;33.70;;;14.23;;
13588;SDS011;6865;52.552;13.434;2022-12-18T11:14:35;30.73;;;14.03;;
13588;SDS011;6865;52.552;13.434;2022-12-18T11:17:22;30.43;;;14.23;;
13588;SDS011;6865;52.552;13.434;2022-12-18T11:19:57;30.47;;;13.97;;
13588;SDS011;6865;52.552;13.434;2022-12-18T11:22:26;30.37;;;13.23;;
13588;SDS011;6865;52.552;13.434;2022-12-18T11:27:49;29.83;;;13.50;;
13588;SDS011;6865;52.552;13.434;2022-12-18T11:30:23;28.93;;;13.97;;
13588;SDS011;6865;52.552;13.434;2022-12-18T11:33:05;29.97;;;13.60;;
13588;SDS011;6865;52.552;13.434;2022-12-18T11:35:40;25.40;;;12.70;;
13588;SDS011;6865;52.552;13.434;2022-12-18T11:40:58;31.83;;;14.07;;
13588;SDS011;6865;52.552;13.434;2022-12-18T11:43:31;23.83;;;12.73;;
13588;SDS011;6865;52.552;13.434;2022-12-18T11:46:07;28.23;;;13.03;;
13588;SDS011;6865;52.552;13.434;2022-12-18T11:51:35;28.20;;;12.70;;
13588;SDS011;6865;52.552;13.434;2022-12-18T11:54:14;24.17;;;12.97;;
13588;SDS011;6865;52.552;13.434;2022-12-18T11:56:55;25.60;;;13.27;;
13588;SDS011;6865;52.552;13.434;2022-12-18T12:08:06;23.97;;;12.03;;
13588;SDS011;6865;52.552;13.434;2022-12-18T12:13:42;26.47;;;12.10;;
13588;SDS011;6865;52.552;13.434;2022-12-18T12:16:22;22.67;;;11.83;;
13588;SDS011;6865;52.552;13.434;2022-12-18T12:19:06;25.87;;;12.27;;
13588;SDS011;6865;52.552;13.434;2022-12-18T12:24:39;24.37;;;12.63;;
13588;SDS011;6865;52.552;13.434;2022-12-18T12:27:20;25.63;;;12.40;;
13588;SDS011;6865;52.552;13.434;2022-12-18T12:30:18;22.13;;;11.97;;
13588;SDS011;6865;52.552;13.434;2022-12-18T12:38:26;21.83;;;11.47;;
13588;SDS011;6865;52.552;13.434;2022-12-18T12:40:59;24.43;;;11.83;;
13588;SDS011;6865;52.552;13.434;2022-12-18T12:43:35;23.23;;;11.93;;
13588;SDS011;6865;52.552;13.434;2022-12-18T12:46:17;25.37;;;13.00;;
13588;SDS011;6865;52.552;13.434;2022-12-18T12:48:48;21.90;;;12.13;;
13588;SDS011;6865;52.552;13.434;2022-12-18T12:51:31;22.13;;;12.43;;
13588;SDS011;6865;52.552;13.434;2022-12-18T12:54:05;21.90;;;11.63;;
13588;SDS011;6865;52.552;13.434;2022-12-18T12:56:42;22.43;;;12.03;;
13588;SDS011;6865;52.552;13.434;2022-12-18T13:02:23;22.47;;;11.83;;
13588;SDS011;6865;52.552;13.434;2022-12-18T13:05:20;21.33;;;11.43;;
13588;SDS011;6865;52.552;13.434;2022-12-18T13:07:53;21.90;;;11.70;;
13588;SDS011;6865;52.552;13.434;2022-12-18T13:20:35;19.70;;;10.80;;
13588;SDS011;6865;52.552;13.434;2022-12-18T13:25:56;21.37;;;11.73;;
13588;SDS011;6865;52.552;13.434;2022-12-18T13:31:14;23.90;;;12.13;;
13588;SDS011;6865;52.552;13.434;2022-12-18T13:34:13;22.30;;;12.13;;
13588;SDS011;6865;52.552;13.434;2022-12-18T13:36:54;22.23;;;12.07;;
13588;SDS011;6865;52.552;13.434;2022-12-18T13:39:24;23.33;;;12.13;;
13588;SDS011;6865;52.552;13.434;2022-12-18T13:44:37;20.53;;;11.63;;
13588;SDS011;6865;52.552;13.434;2022-12-18T13:47:26;21.70;;;12.53;;
13588;SDS011;6865;52.552;13.434;2022-12-18T13:50:01;20.80;;;11.93;;
13588;SDS011;6865;52.552;13.434;2022-12-18T13:52:37;20.17;;;11.90;;
13588;SDS011;6865;52.552;13.434;2022-12-18T13:55:07;26.37;;;12.67;;
13588;SDS011;6865;52.552;13.434;2022-12-18T13:57:42;23.60;;;11.67;;
13588;SDS011;6865;52.552;13.434;2022-12-18T14:02:55;23.80;;;12.60;;
13588;SDS011;6865;52.552;13.434;2022-12-18T14:05:24;23.73;;;13.53;;
13588;SDS011;6865;52.552;13.434;2022-12-18T14:07:53;20.97;;;12.77;;
13588;SDS011;6865;52.552;13.434;2022-12-18T14:10:21;20.17;;;12.10;;
13588;SDS011;6865;52.552;13.434;2022-12-18T14:13:10;21.97;;;12.80;;
13588;SDS011;6865;52.552;13.434;2022-12-18T14:15:43;20.47;;;11.87;;
13588;SDS011;6865;52.552;13.434;2022-12-18T14:20:58;23.77;;;13.40;;
13588;SDS011;6865;52.552;13.434;2022-12-18T14:23:35;22.47;;;13.30;;
13588;SDS011;6865;52.552;13.434;2022-12-18T14:26:22;23.87;;;13.53;;
13588;SDS011;6865;52.552;13.434;2022-12-18T14:29:17;20.40;;;12.63;;
13588;SDS011;6865;52.552;13.434;2022-12-18T14:32:03;24.03;;;13.00;;
13588;SDS011;6865;52.552;13.434;2022-12-18T14:34:35;23.47;;;12.73;;
13588;SDS011;6865;52.552;13.434;2022-12-18T14:37:02;21.73;;;12.20;;
13588;SDS011;6865;52.552;13.434;2022-12-18T14:39:29;21.53;;;11.93;;
13588;SDS011;6865;52.552;13.434;2022-12-18T14:41:56;20.37;;;10.93;;
13588;SDS011;6865;52.552;13.434;2022-12-18T14:44:22;18.97;;;10.97;;
13588;SDS011;6865;52.552;13.434;2022-12-18T14:46:49;19.13;;;11.30;;
13588;SDS011;6865;52.552;13.434;2022-12-18T14:51:50;19.30;;;10.97;;
13588;SDS011;6865;52.552;13.434;2022-12-18T14:54:21;19.87;;;11.87;;
13588;SDS011;6865;52.552;13.434;2022-12-18T14:57:35;21.20;;;12.07;;
13588;SDS011;6865;52.552;13.434;2022-12-18T14:59:47;21.73;;;12.73;;
13588;SDS011;6865;52.552;13.434;2022-12-18T15:02:18;22.03;;;12.83;;
13588;SDS011;6865;52.552;13.434;2022-12-18T15:05:02;21.77;;;12.50;;
13588;SDS011;6865;52.552;13.434;2022-12-18T15:07:41;17.47;;;11.57;;
13588;SDS011;6865;52.552;13.434;2022-12-18T15:12:41;21.87;;;11.87;;
13588;SDS011;6865;52.552;13.434;2022-12-18T15:18:00;21.60;;;12.27;;
13588;SDS011;6865;52.552;13.434;2022-12-18T15:20:30;21.10;;;11.80;;
13588;SDS011;6865;52.552;13.434;2022-12-18T15:22:59;20.40;;;12.80;;
13588;SDS011;6865;52.552;13.434;2022-12-18T15:25:35;20.33;;;11.50;;
13588;SDS011;6865;52.552;13.434;2022-12-18T15:28:04;23.07;;;12.77;;
13588;SDS011;6865;52.552;13.434;2022-12-18T15:31:01;17.17;;;10.70;;
13588;SDS011;6865;52.552;13.434;2022-12-18T15:36:19;19.10;;;11.13;;
13588;SDS011;6865;52.552;13.434;2022-12-18T15:38:52;19.27;;;12.03;;
13588;SDS011;6865;52.552;13.434;2022-12-18T15:41:31;19.57;;;12.07;;
13588;SDS011;6865;52.552;13.434;2022-12-18T15:44:01;20.57;;;12.80;;
13588;SDS011;6865;52.552;13.434;2022-12-18T15:46:29;22.63;;;12.53;;
13588;SDS011;6865;52.552;13.434;2022-12-18T15:48:57;21.33;;;11.40;;
13588;SDS011;6865;52.552;13.434;2022-12-18T15:51:31;21.17;;;11.03;;
13588;SDS011;6865;52.552;13.434;2022-12-18T15:54:00;18.63;;;10.93;;
13588;SDS011;6865;52.552;13.434;2022-12-18T15:56:32;20.60;;;11.17;;
13588;SDS011;6865;52.552;13.434;2022-12-18T15:59:18;17.77;;;10.30;;
13588;SDS011;6865;52.552;13.434;2022-12-18T16:01:46;31.37;;;14.27;;
13588;SDS011;6865;52.552;13.434;2022-12-18T16:04:15;29.70;;;14.53;;
13588;SDS011;6865;52.552;13.434;2022-12-18T16:06:46;17.87;;;10.60;;